Time;durP1;ratioP1;P1;durP2;ratioP2;P2;SDS_P1;SDS_P2;PMS_P1;PMS_P2;Temp;Humidity;BMP_temperature;BMP_pressure;BME280_temperature;BME280_humidity;BME280_pressure;Samples;Min_cycle;Max_cycle;Signal;HPM_P1;HPM_P2
2021/06/29 00:01:15;;;;;;;;;;;19.60;79.30;;;;;;4954658;28;20293;-59
2021/06/29 00:03:40;;;;;;;;;;;19.60;79.50;;;;;;4971643;28;19948;-60
2021/06/29 00:06:06;;;;;;;;;;;19.60;79.70;;;;;;4953342;28;19922;-60
2021/06/29 00:08:31;;;;;;;;;;;19.50;79.70;;;;;;4971002;28;19922;-60
2021/06/29 00:10:57;;;;;;;;;;;19.50;79.90;;;;;;4971389;28;19919;-60
2021/06/29 00:13:23;;;;;;;;;;;19.40;80.00;;;;;;4970255;28;20324;-59
2021/06/29 00:15:49;;;;;;;;;;;19.40;80.20;;;;;;4971687;28;20350;-59
2021/06/29 00:18:14;;;;;;;;;;;19.40;80.30;;;;;;4968472;28;19918;-59
2021/06/29 00:20:40;;;;;;;;;;;19.30;80.50;;;;;;4971368;28;19975;-59
2021/06/29 00:23:06;;;;;;;;;;;19.30;80.80;;;;;;4971690;28;20358;-58
2021/06/29 00:25:31;;;;;;;;;;;19.40;81.10;;;;;;4970921;28;19927;-59
2021/06/29 00:27:58;;;;;;;;;;;19.40;81.20;;;;;;4969978;28;19975;-59
2021/06/29 00:30:23;;;;;;;;;;;19.40;81.30;;;;;;4970828;28;20443;-59
2021/06/29 00:32:49;;;;;;;;;;;19.40;81.40;;;;;;4971364;28;20014;-59
2021/06/29 00:35:15;;;;;;;;;;;19.40;81.50;;;;;;4970083;28;19914;-58
2021/06/29 00:37:40;;;;;;;;;;;19.40;81.60;;;;;;4969519;28;19918;-59
2021/06/29 00:40:07;;;;;;;;;;;19.40;81.60;;;;;;4971316;28;20344;-59
2021/06/29 00:42:32;;;;;;;;;;;19.40;81.60;;;;;;4971207;28;20411;-59
2021/06/29 00:44:58;;;;;;;;;;;19.30;81.70;;;;;;4970733;28;19926;-59
2021/06/29 00:47:24;;;;;;;;;;;19.30;81.80;;;;;;4967370;28;19918;-59
2021/06/29 00:49:49;;;;;;;;;;;19.30;81.90;;;;;;4970450;28;19975;-60
2021/06/29 00:52:15;;;;;;;;;;;19.30;81.90;;;;;;4971219;28;19925;-59
2021/06/29 00:54:41;;;;;;;;;;;19.20;82.00;;;;;;4969857;28;19984;-59
2021/06/29 00:57:08;;;;;;;;;;;19.10;82.10;;;;;;4967754;28;20377;-59
2021/06/29 00:59:33;;;;;;;;;;;19.10;82.20;;;;;;4971071;28;20327;-59
2021/06/29 01:01:59;;;;;;;;;;;19.10;82.40;;;;;;4970915;28;20005;-59
2021/06/29 01:04:25;;;;;;;;;;;19.00;82.50;;;;;;4969166;28;20345;-59
2021/06/29 01:06:50;;;;;;;;;;;19.00;82.70;;;;;;4968185;28;19922;-59
2021/06/29 01:09:16;;;;;;;;;;;19.00;82.70;;;;;;4970236;28;19945;-60
2021/06/29 01:11:42;;;;;;;;;;;19.00;82.90;;;;;;4970792;28;19918;-59
2021/06/29 01:14:15;;;;;;;;;;;19.00;82.90;;;;;;4969388;28;20362;-58
2021/06/29 01:16:41;;;;;;;;;;;19.00;83.00;;;;;;4969577;28;19918;-59
2021/06/29 01:19:06;;;;;;;;;;;18.90;83.10;;;;;;4968560;28;19918;-59
2021/06/29 01:21:36;;;;;;;;;;;18.90;83.10;;;;;;4969986;28;19925;-59
2021/06/29 01:24:04;;;;;;;;;;;18.80;83.20;;;;;;4970425;28;20412;-59
2021/06/29 01:26:31;;;;;;;;;;;18.80;83.50;;;;;;4965372;28;19922;-59
2021/06/29 01:29:05;;;;;;;;;;;18.80;83.50;;;;;;4963177;28;19929;-59
2021/06/29 01:31:32;;;;;;;;;;;18.80;83.70;;;;;;4970566;28;19918;-59
2021/06/29 01:33:57;;;;;;;;;;;18.80;83.90;;;;;;4968681;28;20294;-59
2021/06/29 01:36:24;;;;;;;;;;;18.80;83.90;;;;;;4969486;28;19922;-58
2021/06/29 01:38:50;;;;;;;;;;;18.70;83.80;;;;;;4969611;28;19922;-58
2021/06/29 01:41:19;;;;;;;;;;;18.70;83.90;;;;;;4968062;28;19971;-59
2021/06/29 01:44:10;;;;;;;;;;;18.70;84.00;;;;;;4970301;28;20007;-59
2021/06/29 01:46:36;;;;;;;;;;;18.70;84.20;;;;;;4967977;28;19925;-59
2021/06/29 01:49:02;;;;;;;;;;;18.60;84.70;;;;;;4970159;28;19953;-59
2021/06/29 01:51:28;;;;;;;;;;;18.60;84.50;;;;;;4969173;28;20015;-59
2021/06/29 01:53:54;;;;;;;;;;;18.60;84.60;;;;;;4969754;28;19922;-59
2021/06/29 01:56:27;;;;;;;;;;;18.60;84.60;;;;;;4969321;28;20377;-59
2021/06/29 01:58:54;;;;;;;;;;;18.60;84.60;;;;;;4968606;28;19927;-58
2021/06/29 02:01:20;;;;;;;;;;;18.50;84.70;;;;;;4969979;28;20293;-58
2021/06/29 02:03:46;;;;;;;;;;;18.50;84.90;;;;;;4968324;28;19922;-59
2021/06/29 02:06:13;;;;;;;;;;;18.50;84.90;;;;;;4969495;28;19918;-59
2021/06/29 02:08:38;;;;;;;;;;;18.50;85.10;;;;;;4969641;28;19929;-61
2021/06/29 02:11:04;;;;;;;;;;;18.50;85.10;;;;;;4969098;28;19918;-61
2021/06/29 02:13:29;;;;;;;;;;;18.50;85.20;;;;;;4969974;28;19997;-61
2021/06/29 02:15:56;;;;;;;;;;;18.40;85.70;;;;;;4969446;28;19918;-61
2021/06/29 02:18:22;;;;;;;;;;;18.40;85.40;;;;;;4969614;28;19918;-61
2021/06/29 02:20:48;;;;;;;;;;;18.40;85.50;;;;;;4969785;28;19922;-61
2021/06/29 02:23:14;;;;;;;;;;;18.40;85.50;;;;;;4969512;28;19960;-61
2021/06/29 02:25:40;;;;;;;;;;;18.40;85.60;;;;;;4969828;28;19956;-61
2021/06/29 02:28:05;;;;;;;;;;;18.40;85.80;;;;;;4969452;28;19918;-61
2021/06/29 02:30:31;;;;;;;;;;;18.30;85.80;;;;;;4969289;28;19965;-61
2021/06/29 02:32:57;;;;;;;;;;;18.30;85.80;;;;;;4969656;28;19918;-61
2021/06/29 02:35:22;;;;;;;;;;;18.30;85.90;;;;;;4969363;28;19918;-61
2021/06/29 02:37:48;;;;;;;;;;;18.20;85.90;;;;;;4969327;28;19925;-61
2021/06/29 02:40:13;;;;;;;;;;;18.20;86.00;;;;;;4969717;28;20394;-61
2021/06/29 02:42:39;;;;;;;;;;;18.20;86.10;;;;;;4969244;28;19922;-61
2021/06/29 02:45:06;;;;;;;;;;;18.20;86.20;;;;;;4969544;28;19945;-61
2021/06/29 02:47:33;;;;;;;;;;;18.20;86.30;;;;;;4969391;28;19919;-61
2021/06/29 02:49:59;;;;;;;;;;;18.20;86.50;;;;;;4967772;28;19929;-61
2021/06/29 02:52:24;;;;;;;;;;;18.20;86.60;;;;;;4969476;28;19919;-61
2021/06/29 02:54:50;;;;;;;;;;;18.20;86.50;;;;;;4969011;28;19919;-61
2021/06/29 02:57:16;;;;;;;;;;;18.20;86.50;;;;;;4969133;28;19922;-61
2021/06/29 02:59:41;;;;;;;;;;;18.10;86.60;;;;;;4969237;28;20382;-61
2021/06/29 03:02:07;;;;;;;;;;;18.20;86.70;;;;;;4968898;28;19967;-61
2021/06/29 03:04:32;;;;;;;;;;;18.10;86.60;;;;;;4969151;28;19926;-61
2021/06/29 03:06:58;;;;;;;;;;;18.10;86.70;;;;;;4968446;28;19929;-61
2021/06/29 03:09:23;;;;;;;;;;;18.10;86.80;;;;;;4969224;28;19918;-61
2021/06/29 03:11:49;;;;;;;;;;;18.10;86.90;;;;;;4970795;28;20400;-61
2021/06/29 03:14:17;;;;;;;;;;;18.10;87.10;;;;;;4971959;28;20401;-61
2021/06/29 03:16:43;;;;;;;;;;;18.10;87.20;;;;;;4972026;28;19919;-61
2021/06/29 03:19:09;;;;;;;;;;;18.10;87.20;;;;;;4971075;28;19926;-61
2021/06/29 03:21:34;;;;;;;;;;;18.20;87.30;;;;;;4971999;28;19941;-61
2021/06/29 03:24:00;;;;;;;;;;;18.20;87.30;;;;;;4972192;28;19926;-61
2021/06/29 03:26:26;;;;;;;;;;;18.30;87.40;;;;;;4970611;28;20289;-61
2021/06/29 03:28:51;;;;;;;;;;;18.20;87.40;;;;;;4970651;28;19918;-61
2021/06/29 03:31:17;;;;;;;;;;;18.20;87.40;;;;;;4972271;28;20009;-61
2021/06/29 03:33:42;;;;;;;;;;;18.30;87.60;;;;;;4970703;28;20447;-61
2021/06/29 03:36:08;;;;;;;;;;;18.40;87.70;;;;;;4972155;28;20181;-61
2021/06/29 03:38:34;;;;;;;;;;;18.40;87.80;;;;;;4970549;28;20005;-61
2021/06/29 03:40:59;;;;;;;;;;;18.50;87.90;;;;;;4971820;28;19934;-61
2021/06/29 03:43:25;;;;;;;;;;;18.60;87.90;;;;;;4970720;28;20266;-61
2021/06/29 03:45:50;;;;;;;;;;;18.60;87.80;;;;;;4971588;28;19926;-61
2021/06/29 03:48:16;;;;;;;;;;;18.70;87.90;;;;;;4971699;28;20001;-61
2021/06/29 03:50:41;;;;;;;;;;;18.80;87.90;;;;;;4970546;28;19932;-61
2021/06/29 03:53:07;;;;;;;;;;;18.90;87.90;;;;;;4971592;28;20337;-61
2021/06/29 03:55:33;;;;;;;;;;;18.90;87.70;;;;;;4971875;28;19918;-61
2021/06/29 03:57:59;;;;;;;;;;;19.00;87.70;;;;;;4971562;28;19925;-61
2021/06/29 04:00:24;;;;;;;;;;;19.00;87.70;;;;;;4971353;28;20394;-62
2021/06/29 04:02:50;;;;;;;;;;;19.00;87.70;;;;;;4971672;28;19922;-61
2021/06/29 04:05:17;;;;;;;;;;;19.10;87.80;;;;;;4971692;28;19922;-61
2021/06/29 04:07:43;;;;;;;;;;;19.10;87.70;;;;;;4969659;28;20278;-61
2021/06/29 04:10:10;;;;;;;;;;;19.20;87.70;;;;;;4971754;28;20306;-61
2021/06/29 04:12:35;;;;;;;;;;;19.30;87.70;;;;;;4971115;28;19922;-60
2021/06/29 04:15:01;;;;;;;;;;;19.30;87.50;;;;;;4970210;28;20275;-60
2021/06/29 04:17:26;;;;;;;;;;;19.40;87.40;;;;;;4971056;28;19961;-61
2021/06/29 04:19:55;;;;;;;;;;;19.40;87.30;;;;;;4971054;28;19984;-61
2021/06/29 04:22:20;;;;;;;;;;;19.50;87.30;;;;;;4971404;28;19918;-60
2021/06/29 04:24:46;;;;;;;;;;;19.60;87.40;;;;;;4970761;28;19922;-61
2021/06/29 04:27:11;;;;;;;;;;;19.60;87.30;;;;;;4971223;28;19979;-61
2021/06/29 04:29:37;;;;;;;;;;;19.70;87.20;;;;;;4971342;28;19918;-61
2021/06/29 04:32:03;;;;;;;;;;;19.70;87.10;;;;;;4970683;28;19918;-61
2021/06/29 04:34:29;;;;;;;;;;;19.80;87.10;;;;;;4971527;28;19922;-60
2021/06/29 04:36:54;;;;;;;;;;;19.90;87.10;;;;;;4971065;28;20394;-60
2021/06/29 04:39:20;;;;;;;;;;;20.00;87.20;;;;;;4969514;28;20323;-61
2021/06/29 04:41:45;;;;;;;;;;;20.10;87.00;;;;;;4971321;28;19919;-60
2021/06/29 04:44:11;;;;;;;;;;;20.20;86.90;;;;;;4970891;28;19929;-60
2021/06/29 04:46:37;;;;;;;;;;;20.30;86.90;;;;;;4970650;28;20013;-61
2021/06/29 04:49:02;;;;;;;;;;;20.50;87.00;;;;;;4971011;28;19922;-61
2021/06/29 04:51:28;;;;;;;;;;;20.60;86.90;;;;;;4970672;28;19922;-60
2021/06/29 04:53:53;;;;;;;;;;;20.70;86.70;;;;;;4969741;28;20397;-61
2021/06/29 04:56:19;;;;;;;;;;;20.90;86.50;;;;;;4970957;28;20017;-61
2021/06/29 04:58:54;;;;;;;;;;;20.90;86.30;;;;;;4970315;28;19925;-61
2021/06/29 05:01:20;;;;;;;;;;;21.10;86.30;;;;;;4970852;28;19918;-61
2021/06/29 05:03:45;;;;;;;;;;;21.10;85.90;;;;;;4970184;28;19922;-61
2021/06/29 05:06:11;;;;;;;;;;;21.20;85.70;;;;;;4970619;28;20005;-61
2021/06/29 05:08:37;;;;;;;;;;;21.20;85.30;;;;;;4970649;28;19922;-61
2021/06/29 05:11:02;;;;;;;;;;;21.30;85.20;;;;;;4970129;28;19964;-60
2021/06/29 05:13:28;;;;;;;;;;;21.30;85.20;;;;;;4968519;28;19933;-61
2021/06/29 05:15:54;;;;;;;;;;;21.30;85.20;;;;;;4969363;28;19987;-61
2021/06/29 05:18:19;;;;;;;;;;;21.40;85.30;;;;;;4960783;28;19927;-61
2021/06/29 05:20:45;;;;;;;;;;;21.50;85.30;;;;;;4966139;28;19929;-61
2021/06/29 05:23:11;;;;;;;;;;;21.60;85.30;;;;;;4960465;28;19953;-60
2021/06/29 05:25:36;;;;;;;;;;;21.70;85.10;;;;;;4969917;28;19926;-61
2021/06/29 05:28:02;;;;;;;;;;;21.90;85.00;;;;;;4969549;28;19941;-61
2021/06/29 05:30:28;;;;;;;;;;;22.00;84.80;;;;;;4969427;28;19923;-60
2021/06/29 05:32:54;;;;;;;;;;;22.10;84.70;;;;;;4970075;28;19918;-60
2021/06/29 05:35:19;;;;;;;;;;;22.20;84.50;;;;;;4967880;28;19979;-61
2021/06/29 05:37:45;;;;;;;;;;;22.30;84.10;;;;;;4968687;28;19922;-61
2021/06/29 05:40:11;;;;;;;;;;;22.40;83.90;;;;;;4969712;28;19953;-61
2021/06/29 05:42:36;;;;;;;;;;;22.60;84.00;;;;;;4968932;28;20445;-61
2021/06/29 05:45:02;;;;;;;;;;;22.70;83.80;;;;;;4969441;28;19922;-62
2021/06/29 05:47:28;;;;;;;;;;;22.90;83.60;;;;;;4969310;28;20371;-61
2021/06/29 05:49:54;;;;;;;;;;;23.00;83.20;;;;;;4969713;28;19926;-61
2021/06/29 05:52:19;;;;;;;;;;;23.10;82.80;;;;;;4970125;28;19918;-61
2021/06/29 05:54:45;;;;;;;;;;;23.30;82.70;;;;;;4969930;28;20332;-61
2021/06/29 05:57:13;;;;;;;;;;;23.50;82.80;;;;;;4969000;28;19925;-61
2021/06/29 05:59:38;;;;;;;;;;;23.70;82.10;;;;;;4969011;28;20503;-61
2021/06/29 06:02:04;;;;;;;;;;;23.90;81.30;;;;;;4967898;28;19926;-61
2021/06/29 06:04:29;;;;;;;;;;;24.00;80.90;;;;;;4969735;28;20033;-61
2021/06/29 06:06:55;;;;;;;;;;;24.10;81.00;;;;;;4968097;28;19929;-61
2021/06/29 06:09:21;;;;;;;;;;;24.50;81.30;;;;;;4969340;28;19946;-61
2021/06/29 06:11:46;;;;;;;;;;;24.90;81.20;;;;;;4969842;28;19972;-62
2021/06/29 06:14:12;;;;;;;;;;;25.30;80.40;;;;;;4969748;28;19941;-62
2021/06/29 06:16:37;;;;;;;;;;;25.60;79.60;;;;;;4969131;28;19919;-61
2021/06/29 06:19:04;;;;;;;;;;;26.00;78.50;;;;;;4969714;28;20341;-61
2021/06/29 06:21:30;;;;;;;;;;;26.20;77.70;;;;;;4969164;28;19930;-63
2021/06/29 06:23:56;;;;;;;;;;;26.30;76.80;;;;;;4969239;28;20021;-62
2021/06/29 06:26:21;;;;;;;;;;;26.50;75.80;;;;;;4969245;28;20294;-63
2021/06/29 06:28:47;;;;;;;;;;;26.60;75.00;;;;;;4968485;28;19975;-63
2021/06/29 06:31:12;;;;;;;;;;;26.80;74.30;;;;;;4968245;28;19961;-63
2021/06/29 06:33:38;;;;;;;;;;;27.00;73.60;;;;;;4965486;28;19972;-61
2021/06/29 06:36:04;;;;;;;;;;;27.20;72.70;;;;;;4967980;28;19926;-62
2021/06/29 06:38:29;;;;;;;;;;;27.30;71.90;;;;;;4969360;28;19960;-63
2021/06/29 06:40:56;;;;;;;;;;;27.60;71.90;;;;;;4967860;28;19922;-63
2021/06/29 06:43:22;;;;;;;;;;;27.90;70.90;;;;;;4966305;28;19929;-63
2021/06/29 06:45:47;;;;;;;;;;;28.20;69.60;;;;;;4962972;28;19922;-63
2021/06/29 06:48:13;;;;;;;;;;;28.40;68.20;;;;;;4962498;28;19932;-63
2021/06/29 06:50:38;;;;;;;;;;;28.50;66.90;;;;;;4970269;28;19930;-63
2021/06/29 06:53:04;;;;;;;;;;;28.80;66.70;;;;;;4966790;28;20321;-63
2021/06/29 06:55:30;;;;;;;;;;;29.50;66.90;;;;;;4971727;28;20004;-63
2021/06/29 06:57:56;;;;;;;;;;;29.90;64.70;;;;;;4972028;28;19918;-63
2021/06/29 07:00:23;;;;;;;;;;;29.90;61.80;;;;;;4970270;28;19918;-63
2021/06/29 07:02:48;;;;;;;;;;;29.50;60.60;;;;;;4972315;28;19918;-63
2021/06/29 07:05:14;;;;;;;;;;;29.20;60.30;;;;;;4970853;28;20290;-63
2021/06/29 07:07:40;;;;;;;;;;;29.20;60.90;;;;;;4966544;28;19926;-63
2021/06/29 07:10:06;;;;;;;;;;;29.40;61.00;;;;;;4970393;28;19925;-63
2021/06/29 07:12:31;;;;;;;;;;;29.70;60.00;;;;;;4971797;28;19918;-63
2021/06/29 07:14:57;;;;;;;;;;;29.90;59.20;;;;;;4972000;28;19969;-63
2021/06/29 07:17:23;;;;;;;;;;;29.90;58.30;;;;;;4971669;28;19930;-63
2021/06/29 07:19:49;;;;;;;;;;;29.70;57.60;;;;;;4971435;28;19919;-62
2021/06/29 07:22:14;;;;;;;;;;;29.50;57.80;;;;;;4971845;28;19997;-63
2021/06/29 07:24:40;;;;;;;;;;;29.20;56.80;;;;;;4971823;28;20036;-63
2021/06/29 07:27:06;;;;;;;;;;;28.90;56.90;;;;;;4971366;28;19925;-63
2021/06/29 07:29:32;;;;;;;;;;;28.70;56.90;;;;;;4971016;28;19918;-63
2021/06/29 07:31:57;;;;;;;;;;;28.50;56.90;;;;;;4970422;28;20267;-63
2021/06/29 07:34:23;;;;;;;;;;;28.20;56.80;;;;;;4972255;28;20393;-63
2021/06/29 07:36:48;;;;;;;;;;;27.90;57.50;;;;;;4971755;28;20290;-63
2021/06/29 07:39:14;;;;;;;;;;;27.80;57.70;;;;;;4971495;28;19922;-62
2021/06/29 07:41:40;;;;;;;;;;;27.80;58.10;;;;;;4969999;28;19929;-63
2021/06/29 07:44:05;;;;;;;;;;;27.80;58.40;;;;;;4964734;28;19927;-61
2021/06/29 07:46:31;;;;;;;;;;;28.20;59.80;;;;;;4965477;28;19918;-62
2021/06/29 07:48:56;;;;;;;;;;;29.10;60.40;;;;;;4967419;28;19996;-62
2021/06/29 07:51:22;;;;;;;;;;;30.20;60.20;;;;;;4971172;28;19922;-63
2021/06/29 07:53:48;;;;;;;;;;;31.20;58.50;;;;;;4969871;28;19950;-63
2021/06/29 07:56:17;;;;;;;;;;;31.70;56.40;;;;;;4970771;28;19922;-63
2021/06/29 07:58:43;;;;;;;;;;;31.90;54.90;;;;;;4969787;28;19918;-63
2021/06/29 08:01:09;;;;;;;;;;;32.00;54.70;;;;;;4967063;28;19926;-63
2021/06/29 08:03:35;;;;;;;;;;;32.20;54.00;;;;;;4971105;28;20374;-63
2021/06/29 08:06:01;;;;;;;;;;;32.30;53.10;;;;;;4968187;28;19926;-63
2021/06/29 08:08:26;;;;;;;;;;;32.90;54.10;;;;;;4968067;28;19929;-63
2021/06/29 08:10:52;;;;;;;;;;;33.90;53.90;;;;;;4964188;28;19922;-63
2021/06/29 08:13:17;;;;;;;;;;;34.30;51.60;;;;;;4971697;28;19918;-63
2021/06/29 08:15:43;;;;;;;;;;;34.60;50.90;;;;;;4971042;28;20034;-63
2021/06/29 08:18:09;;;;;;;;;;;35.20;49.40;;;;;;4990747;23;20017;-61
2021/06/29 08:20:35;;;;;;;;;;;36.20;50.20;;;;;;4971020;28;19918;-61
2021/06/29 08:23:01;;;;;;;;;;;36.60;47.10;;;;;;4970826;28;19957;-61
2021/06/29 08:25:28;;;;;;;;;;;36.80;46.30;;;;;;4970001;28;19940;-61
2021/06/29 08:27:54;;;;;;;;;;;37.20;44.50;;;;;;4970760;28;19925;-62
2021/06/29 08:30:20;;;;;;;;;;;37.50;44.60;;;;;;4968844;28;19926;-62
2021/06/29 08:32:45;;;;;;;;;;;38.00;42.90;;;;;;4971271;28;19922;-62
2021/06/29 08:35:11;;;;;;;;;;;37.60;41.20;;;;;;4967467;28;20282;-63
2021/06/29 08:37:40;;;;;;;;;;;36.40;40.40;;;;;;4969309;28;19941;-61
2021/06/29 08:40:07;;;;;;;;;;;35.20;40.90;;;;;;4970709;28;20016;-61
2021/06/29 08:42:34;;;;;;;;;;;33.90;41.60;;;;;;4970373;28;19989;-61
2021/06/29 08:45:00;;;;;;;;;;;33.00;42.90;;;;;;4969427;28;19929;-62
2021/06/29 08:47:26;;;;;;;;;;;32.20;43.80;;;;;;4967754;28;20297;-62
2021/06/29 08:49:52;;;;;;;;;;;31.40;44.60;;;;;;4969483;28;19918;-61
2021/06/29 08:52:18;;;;;;;;;;;30.80;45.80;;;;;;4969731;28;19972;-62
2021/06/29 08:54:43;;;;;;;;;;;30.30;46.80;;;;;;4964574;28;19919;-62
2021/06/29 08:57:09;;;;;;;;;;;29.90;47.60;;;;;;4968658;28;20417;-61
2021/06/29 08:59:35;;;;;;;;;;;29.60;48.00;;;;;;4969264;28;20005;-61
2021/06/29 09:02:01;;;;;;;;;;;29.10;48.70;;;;;;4968860;28;19942;-61
2021/06/29 09:04:46;;;;;;;;;;;28.70;49.20;;;;;;4968184;28;19928;-61
2021/06/29 09:07:22;;;;;;;;;;;28.30;49.70;;;;;;4967652;28;19922;-62
2021/06/29 09:09:49;;;;;;;;;;;27.90;50.70;;;;;;4969159;28;19925;-61
2021/06/29 09:12:34;;;;;;;;;;;27.60;51.80;;;;;;4969132;28;19962;-61
2021/06/29 09:15:19;;;;;;;;;;;27.40;52.50;;;;;;4969878;28;20024;-61
2021/06/29 09:17:46;;;;;;;;;;;27.30;53.40;;;;;;4956630;28;19926;-61
2021/06/29 09:20:11;;;;;;;;;;;27.30;54.10;;;;;;4968165;28;19929;-61
2021/06/29 09:22:37;;;;;;;;;;;27.30;54.70;;;;;;4970391;28;19918;-61
2021/06/29 09:25:03;;;;;;;;;;;27.40;55.20;;;;;;4969738;28;19922;-61
2021/06/29 09:27:42;;;;;;;;;;;27.40;55.40;;;;;;4969985;28;19922;-61
2021/06/29 09:30:27;;;;;;;;;;;27.50;55.80;;;;;;4969578;28;20035;-61
2021/06/29 09:32:53;;;;;;;;;;;27.70;56.00;;;;;;4969604;28;19918;-61
2021/06/29 09:35:18;;;;;;;;;;;27.90;56.20;;;;;;4969183;28;19964;-61
2021/06/29 09:37:47;;;;;;;;;;;28.20;56.60;;;;;;4969431;28;19922;-61
2021/06/29 09:40:15;;;;;;;;;;;28.60;57.00;;;;;;4969669;28;19997;-61
2021/06/29 09:42:41;;;;;;;;;;;29.20;57.10;;;;;;4967986;28;19922;-61
2021/06/29 09:45:26;;;;;;;;;;;30.30;57.70;;;;;;4969663;28;19929;-62
2021/06/29 09:47:52;;;;;;;;;;;31.20;56.00;;;;;;4968638;28;19926;-62
2021/06/29 09:50:36;;;;;;;;;;;31.30;52.90;;;;;;4969666;28;19918;-62
2021/06/29 09:53:12;;;;;;;;;;;31.10;52.20;;;;;;4967602;28;19975;-61
2021/06/29 09:55:38;;;;;;;;;;;30.90;51.50;;;;;;4967404;28;20432;-62
2021/06/29 09:58:10;;;;;;;;;;;30.80;51.20;;;;;;4967493;28;20362;-61
2021/06/29 10:00:39;;;;;;;;;;;30.50;51.20;;;;;;4969473;28;19925;-61
2021/06/29 10:03:27;;;;;;;;;;;30.20;51.00;;;;;;4968894;28;19922;-61
2021/06/29 10:05:54;;;;;;;;;;;30.00;51.20;;;;;;4967612;28;19933;-63
2021/06/29 10:08:27;;;;;;;;;;;29.90;51.20;;;;;;4962361;28;20263;-62
2021/06/29 10:11:03;;;;;;;;;;;29.60;51.30;;;;;;4968843;28;19925;-61
2021/06/29 10:13:32;;;;;;;;;;;29.30;51.60;;;;;;4968915;28;20392;-61
2021/06/29 10:15:58;;;;;;;;;;;29.10;51.90;;;;;;4969183;28;19926;-61
2021/06/29 10:18:24;;;;;;;;;;;29.00;52.20;;;;;;4968347;28;19922;-63
2021/06/29 10:20:52;;;;;;;;;;;29.00;52.80;;;;;;4969458;28;20324;-63
2021/06/29 10:23:18;;;;;;;;;;;29.00;52.90;;;;;;4972833;28;19922;-61
2021/06/29 10:25:44;;;;;;;;;;;28.90;52.70;;;;;;4972240;28;19968;-60
2021/06/29 10:28:13;;;;;;;;;;;28.80;52.50;;;;;;4972600;28;19954;-63
2021/06/29 10:30:39;;;;;;;;;;;28.70;52.80;;;;;;4972554;28;19925;-63
2021/06/29 10:33:06;;;;;;;;;;;28.50;52.60;;;;;;4972992;28;19918;-63
2021/06/29 10:35:32;;;;;;;;;;;28.30;52.70;;;;;;4972239;28;19958;-63
2021/06/29 10:37:58;;;;;;;;;;;28.10;52.80;;;;;;4965353;28;19954;-63
2021/06/29 10:40:24;;;;;;;;;;;27.90;53.00;;;;;;4969751;28;19929;-63
2021/06/29 10:42:50;;;;;;;;;;;27.70;53.40;;;;;;4964158;28;20738;-63
2021/06/29 10:45:16;;;;;;;;;;;27.50;53.80;;;;;;4972438;28;19922;-63
2021/06/29 10:47:42;;;;;;;;;;;27.50;54.20;;;;;;4972374;28;20390;-63
2021/06/29 10:50:14;;;;;;;;;;;27.40;54.60;;;;;;4972002;28;19918;-61
2021/06/29 10:52:41;;;;;;;;;;;27.30;55.10;;;;;;4972339;28;19922;-63
2021/06/29 10:55:24;;;;;;;;;;;27.30;55.60;;;;;;4971818;28;19918;-61
2021/06/29 10:57:51;;;;;;;;;;;27.40;55.90;;;;;;4954031;28;20353;-61
2021/06/29 11:00:16;;;;;;;;;;;27.40;56.40;;;;;;4970428;28;19933;-61
2021/06/29 11:02:58;;;;;;;;;;;27.50;57.10;;;;;;4967878;28;19922;-60
2021/06/29 11:05:24;;;;;;;;;;;27.50;57.50;;;;;;4966187;28;20005;-61
2021/06/29 11:07:50;;;;;;;;;;;27.60;57.80;;;;;;4963524;28;19930;-61
2021/06/29 11:10:30;;;;;;;;;;;27.60;58.20;;;;;;4966966;28;19971;-61
2021/06/29 11:12:58;;;;;;;;;;;27.60;58.40;;;;;;4970803;28;19957;-60
2021/06/29 11:15:43;;;;;;;;;;;27.60;58.80;;;;;;4970148;28;19925;-63
2021/06/29 11:18:09;;;;;;;;;;;27.50;59.30;;;;;;4970303;28;19919;-61
2021/06/29 11:20:38;;;;;;;;;;;27.50;59.70;;;;;;4971947;28;19923;-59
2021/06/29 11:23:05;;;;;;;;;;;27.40;60.20;;;;;;4971317;28;19925;-59
2021/06/29 11:25:32;;;;;;;;;;;27.30;60.40;;;;;;4951821;28;19926;-59
2021/06/29 11:28:16;;;;;;;;;;;27.10;60.70;;;;;;4970776;28;20529;-59
2021/06/29 11:31:01;;;;;;;;;;;27.00;61.00;;;;;;4970837;28;19918;-59
2021/06/29 11:33:38;;;;;;;;;;;26.90;61.50;;;;;;4971003;28;19984;-59
2021/06/29 11:36:04;;;;;;;;;;;26.80;62.00;;;;;;4971182;28;19924;-59
2021/06/29 11:38:49;;;;;;;;;;;26.90;62.60;;;;;;4966821;28;19926;-59
2021/06/29 11:41:24;;;;;;;;;;;27.00;63.20;;;;;;4966409;28;19918;-59
2021/06/29 11:43:49;;;;;;;;;;;27.00;63.60;;;;;;4970247;28;20386;-59
2021/06/29 11:46:34;;;;;;;;;;;27.20;64.50;;;;;;4967484;28;19975;-59
2021/06/29 11:49:08;;;;;;;;;;;27.40;65.10;;;;;;4968523;28;20005;-59
2021/06/29 11:51:52;;;;;;;;;;;27.70;65.50;;;;;;4967535;28;20009;-59
2021/06/29 11:54:25;;;;;;;;;;;28.10;65.20;;;;;;4969593;28;19929;-59
2021/06/29 11:56:51;;;;;;;;;;;28.50;64.30;;;;;;4962649;28;20028;-58
2021/06/29 11:59:26;;;;;;;;;;;28.70;63.70;;;;;;4951665;28;20001;-58
2021/06/29 12:02:02;;;;;;;;;;;28.90;62.90;;;;;;4969370;28;19930;-59
2021/06/29 12:04:28;;;;;;;;;;;29.10;62.50;;;;;;4969512;28;19956;-59
2021/06/29 12:06:57;;;;;;;;;;;29.10;61.80;;;;;;4970347;28;19964;-59
2021/06/29 12:09:33;;;;;;;;;;;29.20;61.70;;;;;;4971163;28;19918;-59
2021/06/29 12:12:15;;;;;;;;;;;29.30;61.10;;;;;;4970847;28;19968;-59
2021/06/29 12:14:40;;;;;;;;;;;29.20;60.00;;;;;;4971370;28;19971;-60
2021/06/29 12:17:06;;;;;;;;;;;29.30;60.60;;;;;;4967806;28;19926;-60
2021/06/29 12:19:31;;;;;;;;;;;29.40;59.90;;;;;;4970440;28;19928;-60
2021/06/29 12:21:57;;;;;;;;;;;29.40;59.30;;;;;;4970839;28;19919;-59
2021/06/29 12:24:23;;;;;;;;;;;29.30;59.00;;;;;;4969027;28;19983;-59
2021/06/29 12:26:48;;;;;;;;;;;29.30;58.70;;;;;;4969062;28;19924;-60
2021/06/29 12:29:26;;;;;;;;;;;29.20;58.00;;;;;;4970188;28;19918;-60
2021/06/29 12:31:52;;;;;;;;;;;29.10;57.80;;;;;;4970928;28;20005;-59
2021/06/29 12:34:20;;;;;;;;;;;29.00;57.80;;;;;;4969689;28;19997;-60
2021/06/29 12:36:46;;;;;;;;;;;29.00;57.80;;;;;;4969306;28;19918;-59
2021/06/29 12:39:12;;;;;;;;;;;29.10;57.90;;;;;;4970487;28;20279;-59
2021/06/29 12:41:37;;;;;;;;;;;29.30;58.00;;;;;;4969095;28;19925;-60
2021/06/29 12:44:04;;;;;;;;;;;29.60;58.30;;;;;;4969411;28;19929;-59
2021/06/29 12:46:40;;;;;;;;;;;30.00;58.40;;;;;;4969229;28;19934;-59
2021/06/29 12:49:08;;;;;;;;;;;30.30;58.00;;;;;;4964625;28;20013;-60
2021/06/29 12:51:44;;;;;;;;;;;30.50;56.90;;;;;;4969133;28;19980;-60
2021/06/29 12:54:11;;;;;;;;;;;30.50;56.80;;;;;;4965938;28;19919;-60
2021/06/29 12:56:38;;;;;;;;;;;30.60;55.90;;;;;;4965951;28;19929;-60
2021/06/29 12:59:05;;;;;;;;;;;30.60;55.20;;;;;;4968988;28;20109;-60
2021/06/29 13:01:32;;;;;;;;;;;30.40;54.60;;;;;;4970092;28;20001;-60
2021/06/29 13:03:59;;;;;;;;;;;30.30;55.10;;;;;;4967419;28;19922;-60
2021/06/29 13:06:25;;;;;;;;;;;30.30;55.50;;;;;;4969485;28;19922;-59
2021/06/29 13:08:51;;;;;;;;;;;30.20;55.60;;;;;;4969152;28;20593;-60
2021/06/29 13:11:18;;;;;;;;;;;30.10;55.10;;;;;;4968169;28;20285;-59
2021/06/29 13:14:03;;;;;;;;;;;29.80;54.50;;;;;;4970335;28;19987;-59
2021/06/29 13:16:30;;;;;;;;;;;29.50;53.90;;;;;;4955213;28;19918;-60
2021/06/29 13:18:56;;;;;;;;;;;29.00;54.00;;;;;;4967584;28;19922;-59
2021/06/29 13:21:26;;;;;;;;;;;28.60;54.60;;;;;;4969938;28;19970;-60
2021/06/29 13:23:59;;;;;;;;;;;28.30;55.30;;;;;;4967243;28;19971;-60
2021/06/29 13:26:26;;;;;;;;;;;28.00;55.90;;;;;;4969820;28;20389;-60
2021/06/29 13:28:51;;;;;;;;;;;27.70;56.20;;;;;;4959587;28;19922;-60
2021/06/29 13:31:17;;;;;;;;;;;27.50;56.50;;;;;;4969083;28;19922;-60
2021/06/29 13:33:43;;;;;;;;;;;27.30;56.60;;;;;;4970232;28;19925;-60
2021/06/29 13:36:09;;;;;;;;;;;27.20;57.00;;;;;;4969423;28;19926;-59
2021/06/29 13:38:35;;;;;;;;;;;27.00;57.60;;;;;;4968920;28;20342;-60
2021/06/29 13:41:01;;;;;;;;;;;27.00;58.20;;;;;;4969868;28;20052;-60
2021/06/29 13:43:29;;;;;;;;;;;26.80;58.50;;;;;;4969310;28;19957;-59
2021/06/29 13:45:57;;;;;;;;;;;26.70;58.50;;;;;;4968361;28;19922;-59
2021/06/29 13:48:27;;;;;;;;;;;26.40;58.70;;;;;;4968707;28;19993;-59
2021/06/29 13:50:53;;;;;;;;;;;26.10;59.10;;;;;;4969704;28;19919;-59
2021/06/29 13:53:23;;;;;;;;;;;25.90;59.90;;;;;;4969573;28;19950;-59
2021/06/29 13:55:56;;;;;;;;;;;25.70;60.60;;;;;;4969551;28;20001;-59
2021/06/29 13:58:23;;;;;;;;;;;25.50;61.00;;;;;;4968422;28;19919;-59
2021/06/29 14:00:56;;;;;;;;;;;25.30;61.60;;;;;;4967672;28;19927;-59
2021/06/29 14:03:24;;;;;;;;;;;25.10;62.40;;;;;;4969872;28;19918;-60
2021/06/29 14:05:53;;;;;;;;;;;24.90;63.30;;;;;;4948889;28;25242;-59
2021/06/29 14:08:24;;;;;;;;;;;24.90;64.00;;;;;;4948472;28;19925;-59
2021/06/29 14:11:02;;;;;;;;;;;24.90;64.70;;;;;;4949612;28;19918;-60
2021/06/29 14:13:28;;;;;;;;;;;24.90;65.20;;;;;;4950523;28;19926;-60
2021/06/29 14:15:55;;;;;;;;;;;24.90;65.60;;;;;;4949625;28;19919;-60
2021/06/29 14:18:21;;;;;;;;;;;24.90;65.90;;;;;;4949445;28;19918;-59